createdAt,value
2019-03-16T00:00:33.600Z,9.80
2019-03-16T00:03:00.912Z,9.70
2019-03-16T00:05:28.148Z,9.70
2019-03-16T00:07:55.417Z,9.70
2019-03-16T00:10:22.656Z,9.70
2019-03-16T00:12:50.234Z,9.70
2019-03-16T00:15:17.569Z,9.70
2019-03-16T00:17:44.841Z,9.70
2019-03-16T00:20:12.422Z,9.80
2019-03-16T00:22:40.061Z,9.80
2019-03-16T00:25:07.921Z,9.80
2019-03-16T00:27:35.192Z,9.70
2019-03-16T00:30:02.482Z,9.80
2019-03-16T00:32:29.749Z,9.80
2019-03-16T00:34:56.997Z,9.80
2019-03-16T00:37:24.272Z,9.80
2019-03-16T00:39:51.848Z,9.80
2019-03-16T00:42:19.145Z,9.80
2019-03-16T00:44:46.748Z,9.80
2019-03-16T00:47:14.328Z,9.80
2019-03-16T00:49:41.572Z,9.90
2019-03-16T00:52:09.121Z,9.80
2019-03-16T00:54:36.362Z,9.80
2019-03-16T00:57:03.625Z,9.90
2019-03-16T00:59:31.290Z,9.80
2019-03-16T01:01:58.533Z,9.80
2019-03-16T01:04:26.097Z,9.80
2019-03-16T01:06:53.341Z,9.80
2019-03-16T01:09:20.913Z,9.80
2019-03-16T01:11:48.145Z,9.80
2019-03-16T01:14:15.417Z,9.90
2019-03-16T01:16:42.573Z,9.90
2019-03-16T01:19:10.141Z,9.80
2019-03-16T01:21:37.678Z,9.90
2019-03-16T01:24:04.938Z,9.90
2019-03-16T01:26:32.488Z,9.90
2019-03-16T01:28:59.757Z,9.90
2019-03-16T01:31:27.000Z,9.90
2019-03-16T01:33:54.572Z,9.90
2019-03-16T01:36:22.109Z,9.90
2019-03-16T01:38:49.673Z,9.90
2019-03-16T01:41:17.230Z,9.90
2019-03-16T01:43:44.581Z,10.00
2019-03-16T01:46:11.833Z,10.00
2019-03-16T01:48:39.101Z,9.90
2019-03-16T01:51:06.345Z,9.90
2019-03-16T01:53:33.612Z,9.90
2019-03-16T01:56:00.878Z,10.00
2019-03-16T01:58:28.149Z,9.90
2019-03-16T02:00:55.757Z,9.90
2019-03-16T02:03:23.003Z,9.80
2019-03-16T02:05:50.239Z,9.80
2019-03-16T02:08:17.568Z,9.80
2019-03-16T02:10:44.810Z,9.80
2019-03-16T02:13:12.137Z,9.90
2019-03-16T02:15:39.554Z,9.80
2019-03-16T02:18:07.135Z,9.80
2019-03-16T02:20:34.377Z,9.80
2019-03-16T02:23:01.621Z,9.80
2019-03-16T02:25:28.885Z,9.80
2019-03-16T02:27:56.117Z,9.80
2019-03-16T02:30:25.207Z,9.80
2019-03-16T02:32:52.449Z,9.80
2019-03-16T02:35:19.709Z,9.80
2019-03-16T02:37:46.954Z,9.80
2019-03-16T02:40:14.212Z,9.70
2019-03-16T02:42:41.451Z,9.80
2019-03-16T02:45:08.925Z,9.80
2019-03-16T02:47:36.427Z,9.80
2019-03-16T02:50:04.406Z,9.80
2019-03-16T02:52:31.741Z,9.70
2019-03-16T02:54:59.092Z,9.80
2019-03-16T02:57:26.745Z,9.90
2019-03-16T02:59:54.022Z,9.80
2019-03-16T03:02:21.270Z,9.90
2019-03-16T03:04:48.651Z,9.90
2019-03-16T03:07:16.425Z,9.90
2019-03-16T03:09:43.942Z,9.90
2019-03-16T03:12:11.273Z,10.00
2019-03-16T03:14:38.533Z,9.90
2019-03-16T03:17:06.095Z,9.90
2019-03-16T03:19:33.361Z,9.80
2019-03-16T03:22:00.702Z,9.80
2019-03-16T03:24:27.978Z,9.70
2019-03-16T03:26:55.665Z,9.70
2019-03-16T03:29:22.977Z,9.70
2019-03-16T03:31:50.223Z,9.70
2019-03-16T03:34:17.588Z,9.70
2019-03-16T03:36:45.234Z,9.60
2019-03-16T03:39:12.589Z,9.70
2019-03-16T03:41:39.849Z,9.70
2019-03-16T03:44:07.534Z,9.70
2019-03-16T03:46:35.058Z,9.70
2019-03-16T03:49:02.398Z,9.70
2019-03-16T03:51:29.969Z,9.70
2019-03-16T03:53:57.214Z,9.70
2019-03-16T03:56:24.491Z,9.70
2019-03-16T03:58:52.540Z,9.80
2019-03-16T04:01:19.789Z,9.80
2019-03-16T04:03:47.688Z,9.80
2019-03-16T04:06:14.933Z,9.80
2019-03-16T04:08:42.577Z,9.80
2019-03-16T04:11:10.138Z,9.70
2019-03-16T04:13:37.385Z,9.90
2019-03-16T04:16:04.642Z,9.90
2019-03-16T04:18:31.982Z,9.90
2019-03-16T04:20:59.317Z,9.90
2019-03-16T04:23:26.556Z,9.90
2019-03-16T04:25:53.808Z,9.90
2019-03-16T04:28:21.148Z,9.80
2019-03-16T04:30:48.391Z,9.90
2019-03-16T04:33:15.733Z,9.80
2019-03-16T04:35:43.690Z,9.70
2019-03-16T04:38:11.013Z,9.60
2019-03-16T04:40:38.589Z,9.60
2019-03-16T04:43:05.829Z,9.50
2019-03-16T04:45:33.068Z,9.50
2019-03-16T04:48:00.308Z,9.50
2019-03-16T04:50:27.553Z,9.40
2019-03-16T04:52:55.157Z,9.40
2019-03-16T04:55:22.712Z,9.40
2019-03-16T04:57:50.283Z,9.40
2019-03-16T05:00:17.655Z,9.40
2019-03-16T05:02:44.893Z,9.40
2019-03-16T05:05:12.165Z,9.40
2019-03-16T05:07:40.097Z,9.50
2019-03-16T05:10:07.485Z,9.40
2019-03-16T05:12:35.138Z,9.40
2019-03-16T05:15:02.573Z,9.40
2019-03-16T05:17:30.437Z,9.40
2019-03-16T05:19:58.322Z,9.40
2019-03-16T05:22:25.870Z,9.40
2019-03-16T05:24:53.136Z,9.40
2019-03-16T05:27:20.381Z,9.40
2019-03-16T05:29:47.964Z,9.40
2019-03-16T05:32:15.208Z,9.30
2019-03-16T05:34:55.599Z,9.30
2019-03-16T05:37:11.595Z,9.30
2019-03-16T05:39:39.185Z,9.30
2019-03-16T05:42:06.436Z,9.30
2019-03-16T05:44:34.406Z,9.20
2019-03-16T05:47:01.648Z,9.20
2019-03-16T05:49:28.905Z,9.20
2019-03-16T05:51:56.153Z,9.20
2019-03-16T05:54:23.397Z,9.20
2019-03-16T05:56:50.650Z,9.20
2019-03-16T05:59:18.655Z,9.20
2019-03-16T06:01:45.927Z,9.20
2019-03-16T06:04:13.575Z,9.10
2019-03-16T06:06:40.819Z,9.10
2019-03-16T06:09:08.360Z,9.10
2019-03-16T06:11:35.690Z,9.10
2019-03-16T06:14:02.940Z,9.10
2019-03-16T06:16:30.521Z,9.10
2019-03-16T06:18:57.781Z,9.10
2019-03-16T06:21:25.197Z,9.10
2019-03-16T06:23:52.825Z,9.10
2019-03-16T06:26:20.066Z,9.00
2019-03-16T06:28:47.300Z,9.00
2019-03-16T06:31:15.161Z,9.00
2019-03-16T06:33:42.409Z,9.00
2019-03-16T06:36:09.681Z,9.00
2019-03-16T06:38:36.927Z,8.90
2019-03-16T06:41:04.295Z,8.90
2019-03-16T06:43:31.549Z,9.00
2019-03-16T06:45:59.129Z,8.90
2019-03-16T06:48:26.539Z,8.90
2019-03-16T06:50:54.109Z,9.00
2019-03-16T06:53:21.674Z,8.90
2019-03-16T06:55:48.919Z,8.90
2019-03-16T06:58:16.469Z,8.90
2019-03-16T07:00:44.131Z,8.90
2019-03-16T07:03:16.144Z,8.80
2019-03-16T07:05:45.916Z,8.80
2019-03-16T07:08:13.313Z,8.90
2019-03-16T07:10:40.643Z,8.90
2019-03-16T07:13:07.889Z,8.90
2019-03-16T07:15:35.141Z,9.00
2019-03-16T07:18:02.385Z,9.00
2019-03-16T07:20:29.629Z,9.00
2019-03-16T07:22:56.892Z,9.00
2019-03-16T07:25:24.444Z,9.00
2019-03-16T07:27:51.989Z,9.00
2019-03-16T07:30:19.236Z,9.00
2019-03-16T07:32:46.806Z,9.00
2019-03-16T07:35:14.133Z,8.90
2019-03-16T07:37:41.384Z,8.90
2019-03-16T07:40:08.650Z,8.90
2019-03-16T07:42:35.919Z,8.90
2019-03-16T07:45:08.591Z,8.90
2019-03-16T07:47:33.084Z,9.10
2019-03-16T07:50:00.630Z,9.20
2019-03-16T07:52:27.877Z,9.40
2019-03-16T07:54:55.128Z,9.50
2019-03-16T07:57:22.698Z,9.50
2019-03-16T07:59:50.025Z,9.50
2019-03-16T08:02:17.248Z,9.40
2019-03-16T08:04:44.977Z,9.40
2019-03-16T08:07:12.521Z,9.30
2019-03-16T08:09:39.761Z,9.30
2019-03-16T08:12:07.005Z,9.30
2019-03-16T08:14:34.333Z,9.20
2019-03-16T08:17:01.559Z,9.10
2019-03-16T08:19:28.865Z,9.00
2019-03-16T08:21:56.325Z,9.00
2019-03-16T08:24:23.658Z,9.00
2019-03-16T08:26:51.002Z,9.00
2019-03-16T08:29:18.609Z,9.00
2019-03-16T08:31:45.833Z,9.10
2019-03-16T08:34:13.465Z,9.20
2019-03-16T08:36:40.684Z,9.20
2019-03-16T08:39:08.231Z,9.30
2019-03-16T08:41:35.461Z,9.40
2019-03-16T08:44:03.684Z,9.40
2019-03-16T08:46:31.210Z,9.40
2019-03-16T08:48:58.770Z,9.30
2019-03-16T08:51:26.001Z,9.40
2019-03-16T08:53:53.234Z,9.40
2019-03-16T08:56:20.473Z,9.40
2019-03-16T08:58:47.714Z,9.50
2019-03-16T09:01:15.260Z,9.60
2019-03-16T09:03:43.858Z,9.80
2019-03-16T09:06:11.529Z,9.80
2019-03-16T09:08:38.765Z,9.70
2019-03-16T09:11:06.598Z,9.70
2019-03-16T09:13:34.286Z,9.60
2019-03-16T09:16:01.680Z,9.60
2019-03-16T09:18:29.577Z,9.60
2019-03-16T09:20:56.872Z,9.60
2019-03-16T09:23:24.097Z,9.50
2019-03-16T09:25:51.443Z,9.50
2019-03-16T09:28:19.228Z,9.40
2019-03-16T09:30:46.830Z,9.40
2019-03-16T09:33:14.171Z,9.40
2019-03-16T09:35:41.729Z,9.30
2019-03-16T09:38:08.961Z,9.20
2019-03-16T09:40:36.317Z,9.20
2019-03-16T09:43:03.552Z,9.20
2019-03-16T09:45:30.825Z,9.20
2019-03-16T09:47:58.060Z,9.20
2019-03-16T09:50:25.317Z,9.20
2019-03-16T09:52:52.845Z,9.10
2019-03-16T09:55:20.114Z,9.20
2019-03-16T09:57:47.373Z,9.30
2019-03-16T10:00:14.654Z,9.40
2019-03-16T10:02:41.891Z,9.40
2019-03-16T10:05:09.538Z,9.40
2019-03-16T10:07:37.572Z,9.30
2019-03-16T10:10:06.941Z,9.30
2019-03-16T10:12:34.178Z,9.20
2019-03-16T10:15:01.407Z,9.20
2019-03-16T10:17:28.765Z,9.30
2019-03-16T10:19:55.996Z,9.40
2019-03-16T10:22:23.553Z,9.50
2019-03-16T10:24:51.114Z,9.50
2019-03-16T10:27:18.773Z,9.60
2019-03-16T10:29:46.440Z,9.80
2019-03-16T10:32:14.094Z,10.00
2019-03-16T10:34:41.325Z,9.90
2019-03-16T10:37:08.586Z,9.90
2019-03-16T10:39:36.181Z,10.00
2019-03-16T10:42:03.823Z,10.20
2019-03-16T10:44:31.056Z,10.30
2019-03-16T10:46:59.240Z,10.10
2019-03-16T10:49:26.806Z,10.00
2019-03-16T10:51:54.056Z,9.90
2019-03-16T10:54:23.040Z,9.70
2019-03-16T10:56:50.376Z,9.60
2019-03-16T10:59:17.961Z,9.60
2019-03-16T11:01:45.618Z,10.50
2019-03-16T11:04:12.845Z,10.70
2019-03-16T11:06:40.121Z,11.00
2019-03-16T11:09:07.353Z,11.10
2019-03-16T11:11:34.697Z,11.10
2019-03-16T11:14:01.934Z,11.10
2019-03-16T11:16:29.541Z,11.00
2019-03-16T11:18:56.773Z,11.00
2019-03-16T11:21:24.377Z,10.70
2019-03-16T11:23:51.609Z,10.70
2019-03-16T11:26:19.161Z,10.50
2019-03-16T11:28:46.389Z,10.50
2019-03-16T11:31:13.973Z,10.30
2019-03-16T11:33:41.536Z,10.10
2019-03-16T11:36:09.205Z,9.90
2019-03-16T11:38:36.860Z,9.80
2019-03-16T11:41:04.145Z,9.70
2019-03-16T11:43:31.803Z,9.50
2019-03-16T11:45:59.127Z,9.40
2019-03-16T11:48:26.457Z,9.50
2019-03-16T11:50:54.037Z,9.80
2019-03-16T11:53:21.257Z,9.90
2019-03-16T11:55:48.498Z,10.10
2019-03-16T11:58:15.757Z,10.10
2019-03-16T12:00:42.980Z,10.00
2019-03-16T12:03:10.237Z,10.00
2019-03-16T12:05:37.477Z,9.90
2019-03-16T12:08:04.748Z,9.80
2019-03-16T12:10:32.258Z,9.80
2019-03-16T12:12:59.509Z,9.80
2019-03-16T12:15:27.389Z,9.80
2019-03-16T12:17:55.037Z,9.60
2019-03-16T12:20:22.184Z,9.50
2019-03-16T12:22:49.553Z,9.50
2019-03-16T12:25:17.100Z,9.40
2019-03-16T12:27:44.498Z,9.70
2019-03-16T12:30:12.316Z,10.10
2019-03-16T12:32:39.890Z,10.30
2019-03-16T12:35:07.536Z,10.00
2019-03-16T12:37:35.101Z,9.70
2019-03-16T12:40:02.348Z,9.50
2019-03-16T12:42:30.015Z,9.40
2019-03-16T12:44:57.289Z,9.40
2019-03-16T12:47:24.630Z,9.30
2019-03-16T12:49:51.992Z,9.30
2019-03-16T12:52:19.633Z,9.50
2019-03-16T12:54:47.202Z,9.60
2019-03-16T12:57:14.477Z,9.60
2019-03-16T12:59:46.931Z,9.70
2019-03-16T13:02:11.021Z,9.80
2019-03-16T13:04:38.573Z,10.20
2019-03-16T13:07:05.928Z,10.90
2019-03-16T13:09:33.165Z,11.50
2019-03-16T13:12:00.408Z,11.20
2019-03-16T13:14:28.073Z,10.90
2019-03-16T13:16:55.301Z,10.60
2019-03-16T13:19:22.881Z,10.30
2019-03-16T13:21:50.442Z,10.10
2019-03-16T13:24:17.677Z,10.10
2019-03-16T13:26:44.910Z,10.10
2019-03-16T13:29:12.151Z,10.00
2019-03-16T13:31:40.065Z,9.90
2019-03-16T13:34:07.627Z,9.80
2019-03-16T13:36:35.289Z,10.00
2019-03-16T13:39:05.277Z,10.00
2019-03-16T13:41:32.861Z,10.10
2019-03-16T13:44:00.269Z,10.40
2019-03-16T13:46:27.493Z,10.30
2019-03-16T13:48:55.029Z,10.10
2019-03-16T13:51:22.687Z,10.20
2019-03-16T13:53:49.989Z,10.40
2019-03-16T13:56:17.695Z,10.50
2019-03-16T13:58:45.685Z,10.50
2019-03-16T14:01:12.910Z,10.80
2019-03-16T14:03:40.512Z,11.10
2019-03-16T14:06:08.464Z,11.10
2019-03-16T14:08:35.723Z,11.20
2019-03-16T14:11:03.050Z,11.50
2019-03-16T14:13:30.608Z,11.40
2019-03-16T14:15:57.844Z,11.20
2019-03-16T14:18:25.206Z,11.30
2019-03-16T14:20:52.528Z,11.20
2019-03-16T14:23:19.884Z,11.10
2019-03-16T14:25:47.584Z,11.30
2019-03-16T14:28:15.146Z,11.30
2019-03-16T14:30:45.049Z,11.40
2019-03-16T14:33:11.627Z,11.40
2019-03-16T14:35:39.271Z,11.30
2019-03-16T14:38:06.601Z,11.30
2019-03-16T14:40:34.354Z,11.20
2019-03-16T14:43:01.701Z,11.10
2019-03-16T14:45:29.417Z,11.10
2019-03-16T14:47:57.053Z,11.10
2019-03-16T14:50:24.310Z,11.00
2019-03-16T14:52:51.617Z,11.10
2019-03-16T14:55:19.120Z,11.00
2019-03-16T14:57:46.366Z,10.90
2019-03-16T15:00:14.237Z,10.90
2019-03-16T15:02:41.796Z,10.90
2019-03-16T15:05:09.220Z,10.80
2019-03-16T15:07:36.446Z,10.80
2019-03-16T15:10:03.911Z,10.70
2019-03-16T15:12:31.133Z,10.70
2019-03-16T15:14:58.973Z,10.60
2019-03-16T15:17:26.534Z,10.60
2019-03-16T15:19:53.761Z,10.60
2019-03-16T15:22:21.082Z,10.80
2019-03-16T15:24:48.305Z,10.80
2019-03-16T15:27:15.982Z,10.90
2019-03-16T15:29:43.813Z,10.90
2019-03-16T15:32:11.041Z,11.30
2019-03-16T15:34:38.681Z,11.40
2019-03-16T15:37:05.909Z,11.40
2019-03-16T15:39:33.154Z,11.30
2019-03-16T15:42:00.400Z,11.10
2019-03-16T15:44:28.658Z,11.00
2019-03-16T15:46:55.885Z,10.90
2019-03-16T15:49:23.161Z,11.00
2019-03-16T15:51:50.825Z,11.00
2019-03-16T15:54:18.080Z,11.10
2019-03-16T15:56:45.315Z,11.10
2019-03-16T15:59:12.570Z,11.20
2019-03-16T16:01:40.821Z,11.10
2019-03-16T16:04:08.517Z,11.10
2019-03-16T16:06:35.744Z,11.00
2019-03-16T16:09:05.216Z,11.00
2019-03-16T16:11:32.455Z,11.20
2019-03-16T16:13:59.985Z,11.20
2019-03-16T16:16:27.541Z,11.30
2019-03-16T16:18:55.102Z,11.20
2019-03-16T16:21:22.357Z,11.20
2019-03-16T16:23:49.697Z,11.10
2019-03-16T16:26:17.025Z,11.10
2019-03-16T16:28:44.654Z,11.00
2019-03-16T16:31:16.618Z,10.80
2019-03-16T16:33:41.125Z,10.70
2019-03-16T16:36:08.673Z,10.60
2019-03-16T16:38:36.096Z,10.60
2019-03-16T16:41:03.749Z,10.50
2019-03-16T16:43:31.307Z,10.30
2019-03-16T16:45:59.170Z,10.30
2019-03-16T16:48:26.728Z,10.20
2019-03-16T16:50:53.962Z,10.20
2019-03-16T16:53:21.196Z,10.10
2019-03-16T16:55:48.818Z,10.10
2019-03-16T16:58:16.049Z,10.10
2019-03-16T17:00:43.605Z,10.00
2019-03-16T17:03:11.257Z,10.00
2019-03-16T17:05:38.476Z,10.00
2019-03-16T17:08:05.709Z,9.90
2019-03-16T17:10:32.964Z,9.80
2019-03-16T17:13:00.290Z,9.70
2019-03-16T17:15:27.852Z,9.70
2019-03-16T17:17:55.393Z,9.60
2019-03-16T17:20:22.949Z,9.70
2019-03-16T17:22:50.191Z,9.70
2019-03-16T17:25:17.440Z,9.70
2019-03-16T17:27:45.218Z,9.70
2019-03-16T17:30:14.677Z,9.70
2019-03-16T17:32:41.977Z,9.70
2019-03-16T17:35:09.653Z,9.60
2019-03-16T17:37:36.899Z,9.50
2019-03-16T17:40:05.097Z,9.50
2019-03-16T17:42:32.796Z,9.60
2019-03-16T17:45:00.494Z,9.50
2019-03-16T17:47:27.724Z,9.50
2019-03-16T17:49:55.297Z,9.40
2019-03-16T17:52:22.516Z,9.40
2019-03-16T17:54:50.113Z,9.30
2019-03-16T17:57:17.363Z,9.40
2019-03-16T17:59:44.709Z,9.30
2019-03-16T18:02:12.278Z,9.30
2019-03-16T18:04:39.833Z,9.20
2019-03-16T18:07:07.061Z,9.20
2019-03-16T18:09:34.377Z,9.20
2019-03-16T18:12:01.609Z,9.20
2019-03-16T18:14:29.132Z,9.20
2019-03-16T18:16:56.455Z,9.10
2019-03-16T18:19:23.677Z,9.00
2019-03-16T18:21:50.913Z,8.90
2019-03-16T18:24:18.461Z,8.90
2019-03-16T18:26:45.693Z,8.90
2019-03-16T18:29:12.916Z,8.90
2019-03-16T18:31:40.150Z,8.90
2019-03-16T18:34:07.401Z,8.80
2019-03-16T18:36:34.629Z,8.70
2019-03-16T18:39:01.837Z,8.80
2019-03-16T18:41:29.062Z,8.80
2019-03-16T18:43:56.310Z,8.80
2019-03-16T18:46:23.532Z,8.70
2019-03-16T18:48:50.789Z,8.70
2019-03-16T18:51:18.433Z,8.70
2019-03-16T18:53:45.796Z,8.80
2019-03-16T18:56:13.018Z,8.90
2019-03-16T18:58:40.619Z,8.90
2019-03-16T19:01:08.159Z,8.90
2019-03-16T19:03:35.742Z,8.80
2019-03-16T19:06:02.971Z,8.90
2019-03-16T19:08:30.289Z,8.90
2019-03-16T19:10:57.517Z,8.90
2019-03-16T19:13:24.745Z,8.80
2019-03-16T19:15:52.070Z,8.70
2019-03-16T19:18:19.296Z,8.60
2019-03-16T19:20:46.893Z,8.60
2019-03-16T19:23:14.218Z,8.50
2019-03-16T19:25:41.804Z,8.40
2019-03-16T19:28:09.025Z,8.40
2019-03-16T19:30:36.252Z,8.20
2019-03-16T19:33:03.492Z,7.90
2019-03-16T19:35:30.813Z,7.70
2019-03-16T19:37:58.370Z,7.60
2019-03-16T19:40:25.933Z,7.50
2019-03-16T19:42:53.231Z,7.50
2019-03-16T19:45:20.833Z,7.60
2019-03-16T19:47:48.065Z,7.40
2019-03-16T19:50:15.661Z,7.60
2019-03-16T19:52:43.208Z,7.60
2019-03-16T19:55:10.753Z,7.60
2019-03-16T19:57:38.329Z,7.60
2019-03-16T20:00:06.874Z,7.60
2019-03-16T20:02:46.216Z,7.60
2019-03-16T20:05:03.914Z,7.50
2019-03-16T20:07:31.448Z,7.50
2019-03-16T20:09:58.672Z,7.60
2019-03-16T20:12:25.909Z,7.70
2019-03-16T20:14:53.496Z,7.80
2019-03-16T20:17:20.712Z,7.90
2019-03-16T20:19:48.054Z,7.80
2019-03-16T20:22:15.553Z,7.70
2019-03-16T20:24:42.781Z,7.70
2019-03-16T20:27:10.369Z,7.70
2019-03-16T20:29:37.813Z,7.90
2019-03-16T20:32:05.049Z,7.70
2019-03-16T20:34:32.637Z,7.70
2019-03-16T20:37:00.030Z,7.60
2019-03-16T20:39:27.255Z,7.50
2019-03-16T20:41:54.505Z,7.40
2019-03-16T20:44:21.737Z,7.50
2019-03-16T20:46:49.092Z,7.30
2019-03-16T20:49:16.660Z,7.40
2019-03-16T20:51:43.910Z,7.40
2019-03-16T20:54:11.137Z,7.50
2019-03-16T20:56:38.405Z,7.60
2019-03-16T20:59:05.724Z,7.60
2019-03-16T21:01:33.085Z,7.70
2019-03-16T21:04:00.618Z,7.60
2019-03-16T21:06:27.974Z,7.30
2019-03-16T21:09:03.183Z,7.30
2019-03-16T21:11:24.716Z,7.50
2019-03-16T21:13:52.262Z,7.70
2019-03-16T21:16:19.849Z,7.90
2019-03-16T21:18:47.076Z,7.90
2019-03-16T21:21:14.326Z,7.90
2019-03-16T21:23:41.553Z,7.90
2019-03-16T21:26:09.325Z,7.90
2019-03-16T21:28:36.564Z,7.90
2019-03-16T21:31:03.833Z,7.90
2019-03-16T21:33:31.062Z,8.00
2019-03-16T21:35:58.641Z,7.90
2019-03-16T21:38:25.870Z,8.00
2019-03-16T21:40:53.125Z,8.10
2019-03-16T21:43:20.709Z,8.10
2019-03-16T21:45:47.935Z,8.20
2019-03-16T21:48:15.249Z,8.10
2019-03-16T21:50:42.506Z,8.10
2019-03-16T21:53:09.825Z,8.10
2019-03-16T21:55:37.192Z,8.20
2019-03-16T21:58:04.469Z,8.10
2019-03-16T22:00:31.981Z,8.10
2019-03-16T22:02:59.637Z,8.10
2019-03-16T22:05:27.228Z,8.10
2019-03-16T22:07:54.566Z,8.00
2019-03-16T22:10:21.985Z,8.00
2019-03-16T22:12:49.640Z,8.20
2019-03-16T22:15:16.953Z,8.20
2019-03-16T22:17:44.201Z,8.10
2019-03-16T22:20:11.480Z,8.00
2019-03-16T22:22:39.009Z,8.10
2019-03-16T22:25:06.545Z,8.10
2019-03-16T22:27:33.801Z,8.10
2019-03-16T22:30:01.364Z,8.20
2019-03-16T22:32:28.713Z,8.20
2019-03-16T22:34:55.986Z,8.40
2019-03-16T22:37:23.436Z,8.30
2019-03-16T22:39:50.676Z,8.50
2019-03-16T22:42:18.233Z,8.50
2019-03-16T22:44:45.489Z,8.60
2019-03-16T22:47:13.038Z,8.60
2019-03-16T22:49:40.264Z,8.60
2019-03-16T22:52:07.520Z,8.60
2019-03-16T22:54:34.758Z,8.60
2019-03-16T22:57:02.017Z,8.70
2019-03-16T22:59:29.519Z,8.70
2019-03-16T23:01:56.869Z,8.60
2019-03-16T23:04:24.180Z,8.70
2019-03-16T23:06:52.185Z,8.70
2019-03-16T23:09:19.422Z,8.70
2019-03-16T23:11:46.673Z,8.60
2019-03-16T23:14:14.325Z,8.60
2019-03-16T23:16:41.901Z,8.50
2019-03-16T23:19:09.168Z,8.50
2019-03-16T23:21:36.456Z,8.40
2019-03-16T23:24:03.929Z,8.30
2019-03-16T23:26:38.247Z,8.20
2019-03-16T23:29:00.382Z,8.20
2019-03-16T23:31:27.645Z,8.20
2019-03-16T23:33:55.353Z,8.20
2019-03-16T23:36:22.588Z,8.20
2019-03-16T23:38:49.868Z,8.40
2019-03-16T23:41:17.393Z,8.40
2019-03-16T23:43:45.017Z,8.30
2019-03-16T23:46:12.920Z,8.40
2019-03-16T23:48:40.209Z,8.50
2019-03-16T23:51:08.453Z,8.40
2019-03-16T23:53:36.311Z,8.50
2019-03-16T23:56:03.873Z,8.50
2019-03-16T23:58:31.149Z,8.60
